Chesaw, Washington
Current Conditions -  °F | °C
As of 7:27 AM on Thursday 18 Dec 2014 (Local Time) from KOMK Reporting Station
Haze Haze  
Wind Chill: 30°   Ceiling: 600
Heat Index: 34°   Visibility: 1.2mi
Dew Point: 33°   Wind: 5mph
Humidity: 96%   Direction: 210°SSW
Pressure: 29.99"   Gusts: NA
Location:  48.9273°N, 119.255°W
Report Text: KOMK 181527Z AUTO 21004KT 1 1/4SM BR OVC006 01/01 A2999 RMK AO2 T00110006
Loading
Personal Weather Stations






























Interactive Weather Map New forecast layout! Learn more

10-Day Weather Forecast

Advertisements
Track Severe Weather on mobile